KFAF/FAF METAR and TAF weather

Enter ICAO airport designator
Station Type Date Time Source
KFAF METAR 2020/09/21 04:56 UTC NOAA

KFAF 210456Z AUTO 04008KT 10SM CLR 15/08 A3042 RMK AO2 SLP304 T01530083 402140131 $


Station Type Date Time Source
KFAF Decoded METAR 2020/09/21 04:56 UTC NOAA

Fort Eustis / Felker, VA, United States (KFAF) 37-08N 076-37W
Sep 21, 2020 - 12:56 AM EDT / 2020.09.21 0456 UTC
Wind: from the NE (040 degrees) at 9 MPH (8 KT):0
Visibility: 10 mile(s):0
Sky conditions: clear
Temperature: 59.5 F (15.3 C)
Dew Point: 46.9 F (8.3 C)
Relative Humidity: 62%
Pressure (altimeter): 30.42 in. Hg (1030 hPa)
ob: KFAF 210456Z AUTO 04008KT 10SM CLR 15/08 A3042 RMK AO2 SLP304 T01530083 402140131
cycle: 5

Station Type Date Time Source
KFAF TAF 2020/09/18 18:28 UTC NOAA

TAF KFAF 181800Z 1818/1924 01012G18KT 9999 FEW015 BKN020 BKN200 QNH2987INS
BECMG 1900/1901 01012KT 9999 BKN030 QNH3003INS
BECMG 1912/1913 01012G18KT 9999 BKN025 QNH3020INS TX24/1819Z TN15/1910Z LAST NO
AMDS AFT 1821 NEXT 2110

Example: see airport list